WetterOnline ( http://www.wetteronline.de )

Wetter aktuell Großer Arber

Aktuelles Wetter: Churanov/Böhmerwald (1122m)

6-stündlich | Neueste Meldungen
Ortszeit Temperatur Wetter
Sa, 24.06. 20:00 19.2° C leicht bewölkt
Sa, 24.06. 14:00 21.6° C fast wolkenlos
Sa, 24.06. 8:00 15.0° C fast wolkenlos
Sa, 24.06. 2:00 14.6° C -
Ortszeit Temperatur Wetter
Sa, 24.06. 23:00 14.6° C fast wolkenlos
Sa, 24.06. 22:00 16.3° C leicht bewölkt
Sa, 24.06. 21:00 18.6° C leicht bewölkt
Sa, 24.06. 20:00 19.2° C leicht bewölkt
Sa, 24.06. 19:00 20.3° C -
Sa, 24.06. 18:00 22.0° C -
Ortszeit Relative Feuchte Sichtweite
Sa, 24.06. 20:00 59% 30 km
Sa, 24.06. 14:00 41% 40 km
Sa, 24.06. 8:00 66% 20 km
Sa, 24.06. 2:00 75% 20 km
Ortszeit Relative Feuchte Sichtweite
Sa, 24.06. 23:00 77% 20 km
Sa, 24.06. 22:00 72% 35 km
Sa, 24.06. 21:00 63% 35 km
Sa, 24.06. 20:00 59% 30 km
Sa, 24.06. 19:00 50% 20 km
Sa, 24.06. 18:00 46% 20 km
Ortszeit Niederschlagsmenge Niederschlagsart
Sa, 24.06. 20:00 0.0 l/m2 in 12 Std. -
Sa, 24.06. 14:00 0.0 l/m2 in 6 Std. -
Sa, 24.06. 8:00 0.0 l/m2 in 12 Std. -
Sa, 24.06. 2:00 0.0 l/m2 in 6 Std. -
Ortszeit Niederschlagsmenge Niederschlagsart
Sa, 24.06. 23:00 0.0 l/m2 in 1 Std. -
Sa, 24.06. 22:00 0.0 l/m2 in 1 Std. -
Sa, 24.06. 21:00 0.0 l/m2 in 1 Std. -
Sa, 24.06. 20:00 0.0 l/m2 in 1 Std. -
Sa, 24.06. 19:00 0.0 l/m2 in 1 Std. -
Sa, 24.06. 18:00 0.0 l/m2 in 1 Std. -
Ortszeit Stärke Spitze Richtung
km/h Bft. km/h Grad Sektor
Sa, 24.06. 20:00 11 2 50 250° W
Sa, 24.06. 14:00 22 4 65 250° W
Sa, 24.06. 8:00 22 4 54 240° SW
Sa, 24.06. 2:00 14 3 - 270° W
Ortszeit Stärke Spitze Richtung
km/h Bft. km/h Grad Sektor
Sa, 24.06. 23:00 7 2 - 260° W
Sa, 24.06. 22:00 7 2 - 240° SW
Sa, 24.06. 21:00 11 2 - 260° W
Sa, 24.06. 20:00 11 2 50 250° W
Sa, 24.06. 19:00 18 3 - 250° W
Sa, 24.06. 18:00 18 3 47 250° W
Ortszeit Untergrenze Bedeckung Gattung
total tief tief mittel hoch
Sa, 24.06. 20:00 1020 m 5/8 1/8 Cu - Ci
Sa, 24.06. 14:00 1500 m 1/8 1/8 Cu - Ci
Sa, 24.06. 8:00 720 m 1/8 1/8 Cu - Ci
Sa, 24.06. 2:00 - - - - - -
Ortszeit Bedeckungsgrad in Achtel und Wolkenuntergrenze
Sa, 24.06. 23:00 1(1380m)
Sa, 24.06. 22:00 2(720m) 4(7500m)
Sa, 24.06. 21:00 1(870m) 4(7500m)
Sa, 24.06. 20:00 1(1020m) 5(7500m)
Sa, 24.06. 19:00 -
Sa, 24.06. 18:00 -
Ortszeit Stationsdruck (hPa) Tendenz (hPa in 3 Std.)
Sa, 24.06. 20:00 890 - 0,2
Sa, 24.06. 14:00 891 - 0,6
Sa, 24.06. 8:00 891 - 0,5
Sa, 24.06. 2:00 892 + 0,3
Ortszeit Stationsdruck (hPa) Tendenz (hPa in 3 Std.)
Sa, 24.06. 23:00 891 + 1,2
Sa, 24.06. 22:00 891 + 0,6
Sa, 24.06. 21:00 890 - 0,2
Sa, 24.06. 20:00 890 - 0,2
Sa, 24.06. 19:00 890 - 0,3
Sa, 24.06. 18:00 890 - 0,6
Ortszeit Schneehöhe (cm)
Sa, 24.06. 20:00 -
Sa, 24.06. 14:00 -
Sa, 24.06. 8:00 -
Sa, 24.06. 2:00 -
Ortszeit Schneehöhe (cm)
Sa, 24.06. 23:00 -
Sa, 24.06. 22:00 -
Sa, 24.06. 21:00 -
Sa, 24.06. 20:00 -
Sa, 24.06. 19:00 -
Sa, 24.06. 18:00 -
Link zu dieser Seite / Seite empfehlen

Das Wetter in ...